This is the latest recevied weather packets stored in our database for station/object DJ0JJ-11. If no packets are shown the sender has not sent any weather packets the latest 10 day(s).
| Time | Temp. | Humidity | Pressure | Rain* | Wind** | Luminosity | Snow |
|---|---|---|---|---|---|---|---|
| 1787448028 | 15° C | 84% | 1024 hPa | - | - | - | - |
| 1787447128 | 15° C | 84% | 1024.1 hPa | - | - | - | - |
| 1787446227 | 15° C | 84% | 1024 hPa | - | - | - | - |
| 1787445327 | 15° C | 86% | 1023.9 hPa | - | - | - | - |
| 1787444427 | 15° C | 84% | 1024 hPa | - | - | - | - |
| 1787443527 | 15.56° C | 84% | 1024 hPa | - | - | - | - |
| 1787442627 | 15.56° C | 84% | 1024.1 hPa | - | - | - | - |
| 1787441727 | 15° C | 86% | 1024.1 hPa | - | - | - | - |
| 1787440827 | 15° C | 86% | 1024.3 hPa | - | - | - | - |
| 1787439927 | 16.11° C | 81% | 1024.1 hPa | - | - | - | - |
| 1787439027 | 16.11° C | 80% | 1024 hPa | - | - | - | - |
| 1787438127 | 16.67° C | 80% | 1024.1 hPa | - | - | - | - |
| 1787437226 | 16.67° C | 80% | 1024.1 hPa | - | - | - | - |
| 1787436326 | 16.67° C | 78% | 1023.8 hPa | - | - | - | - |
| 1787435426 | 16.67° C | 78% | 1023.9 hPa | - | - | - | - |
| 1787434526 | 16.67° C | 77% | 1023.9 hPa | - | - | - | - |
| 1787433625 | 17.22° C | 76% | 1023.9 hPa | - | - | - | - |
| 1787432725 | 17.22° C | 75% | 1023.8 hPa | - | - | - | - |
| 1787431825 | 17.22° C | 75% | 1023.7 hPa | - | - | - | - |
| 1787430925 | 17.78° C | 76% | 1023.8 hPa | - | - | - | - |
| 1787430025 | 17.78° C | 75% | 1023.7 hPa | - | - | - | - |
| 1787429125 | 17.78° C | 76% | 1023.6 hPa | - | - | - | - |
| 1787428227 | 17.22° C | 76% | 1023.5 hPa | - | - | - | - |
| 1787427327 | 18.33° C | 68% | 1023.5 hPa | - | - | - | - |
| 1787426427 | 18.89° C | 65% | 1023.2 hPa | - | - | - | - |
* Rain since midnight (hover to see other rain measurements)
** Current wind speed in m/s (hover to see current wind gust speed)